Orland, Maine
Current Conditions -  °F | °C
As of 3:53 AM on Wednesday 22 Oct 2014 (Local Time) from KBGR Reporting Station
Drizzle Drizzle  
Wind Chill: 41°   Ceiling: 800
Heat Index: 47°   Visibility: 10mi
Dew Point: 45°   Wind: 13mph
Humidity: 93%   Direction: 30°NNE
Pressure: 30.18"   Gusts: NA
Location:  44.57°N, 68.74°W
Report Text: KBGR 220753Z 03011KT 10SM -DZ OVC008 08/07 A3018 RMK AO2 CIG 006V013 SLP219 P0000 T00830072
Loading
Personal Weather Stations






























Interactive Weather Map
Tropical Storm Tracking
New forecast layout! Learn more

10-Day Weather Forecast

Advertisements
Track Severe Weather on mobile